Time;durP1;ratioP1;P1;durP2;ratioP2;P2;SDS_P1;SDS_P2;PMS_P1;PMS_P2;Temp;Humidity;BMP_temperature;BMP_pressure;BME280_temperature;BME280_humidity;BME280_pressure;Samples;Min_cycle;Max_cycle;Signal;HPM_P1;HPM_P2
2022/01/03 00:00:09;;;;;;;32.17;3.58;;;;;;;8.75;100.00;100870.22;5032922;28;20049;-40
2022/01/03 00:02:38;;;;;;;32.97;4.07;;;;;;;8.76;100.00;100873.84;5032608;28;20404;-37
2022/01/03 00:05:07;;;;;;;25.75;3.58;;;;;;;8.77;100.00;100881.06;5032896;28;20474;-37
2022/01/03 00:07:38;;;;;;;18.90;3.40;;;;;;;8.80;100.00;100872.94;5014040;28;20509;-32
2022/01/03 00:10:08;;;;;;;26.42;3.67;;;;;;;8.80;100.00;100877.69;5032965;28;20045;-40
2022/01/03 00:12:35;;;;;;;23.90;3.88;;;;;;;8.78;100.00;100872.44;5032826;28;20041;-38
2022/01/03 00:15:04;;;;;;;26.80;3.45;;;;;;;8.77;100.00;100879.13;5031883;28;20048;-34
2022/01/03 00:17:32;;;;;;;21.92;3.22;;;;;;;8.77;100.00;100870.78;5032582;28;20068;-31
2022/01/03 00:19:59;;;;;;;24.45;3.20;;;;;;;8.82;100.00;100876.28;5032365;28;20053;-36
2022/01/03 00:22:31;;;;;;;28.23;3.53;;;;;;;8.80;100.00;100875.72;5031516;28;20162;-31
2022/01/03 00:25:04;;;;;;;24.33;3.72;;;;;;;8.82;100.00;100873.50;5032475;28;20136;-35
2022/01/03 00:27:40;;;;;;;23.98;3.72;;;;;;;8.85;100.00;100877.66;5032589;28;20121;-33
2022/01/03 00:30:09;;;;;;;25.13;3.03;;;;;;;8.86;100.00;100890.47;5031780;28;20052;-37
2022/01/03 00:32:39;;;;;;;25.20;3.78;;;;;;;8.88;100.00;100882.66;5032446;28;20053;-32
2022/01/03 00:35:08;;;;;;;24.30;3.60;;;;;;;8.88;100.00;100869.56;5014995;28;20063;-33
2022/01/03 00:37:36;;;;;;;23.63;3.72;;;;;;;8.88;100.00;100875.13;5013831;28;20058;-35
2022/01/03 00:40:07;;;;;;;26.85;4.55;;;;;;;8.87;100.00;100884.59;5031937;28;20084;-36
2022/01/03 00:42:35;;;;;;;30.65;3.90;;;;;;;8.86;100.00;100884.91;5031596;28;20061;-34
2022/01/03 00:45:04;;;;;;;30.38;4.88;;;;;;;8.86;100.00;100873.75;5031632;28;20049;-37
2022/01/03 00:47:33;;;;;;;29.38;4.00;;;;;;;8.86;100.00;100882.13;5032029;28;20120;-37
2022/01/03 00:50:03;;;;;;;27.85;3.95;;;;;;;8.84;100.00;100878.78;5031096;28;20060;-38
2022/01/03 00:52:30;;;;;;;25.58;3.83;;;;;;;8.83;100.00;100869.59;5014330;28;20045;-35
2022/01/03 00:54:58;;;;;;;29.98;4.65;;;;;;;8.84;100.00;100876.84;5031772;28;20045;-36
2022/01/03 00:57:37;;;;;;;30.52;4.30;;;;;;;8.84;100.00;100876.84;5030968;28;20049;-32
2022/01/03 01:00:09;;;;;;;27.92;3.80;;;;;;;8.83;100.00;100874.34;5031741;28;20041;-32
2022/01/03 01:02:46;;;;;;;26.55;3.95;;;;;;;8.82;100.00;100883.78;5014216;28;20497;-37
2022/01/03 01:05:15;;;;;;;27.52;3.83;;;;;;;8.78;100.00;100872.44;5013219;28;20048;-35
2022/01/03 01:07:45;;;;;;;26.83;3.90;;;;;;;8.81;100.00;100873.78;5013825;28;20049;-36
2022/01/03 01:10:13;;;;;;;29.50;4.40;;;;;;;8.79;100.00;100884.41;5031533;28;20045;-36
2022/01/03 01:12:46;;;;;;;24.85;4.40;;;;;;;8.79;100.00;100878.84;5030847;28;20048;-33
2022/01/03 01:15:15;;;;;;;26.23;4.38;;;;;;;8.80;100.00;100881.28;5014151;28;20598;-33
2022/01/03 01:17:43;;;;;;;26.80;4.60;;;;;;;8.83;100.00;100871.56;5013180;28;20052;-33
2022/01/03 01:20:15;;;;;;;32.15;4.00;;;;;;;8.81;100.00;100882.13;5031533;28;20586;-38
2022/01/03 01:22:43;;;;;;;25.98;4.45;;;;;;;8.79;100.00;100879.63;5031401;28;20069;-37
2022/01/03 01:25:25;;;;;;;30.08;4.63;;;;;;;8.82;100.00;100881.00;5030952;28;20068;-37
2022/01/03 01:27:56;;;;;;;29.77;4.05;;;;;;;8.78;100.00;100894.69;5013817;28;20059;-40
2022/01/03 01:30:27;;;;;;;33.95;4.72;;;;;;;8.77;100.00;100889.41;5013676;28;20049;-35
2022/01/03 01:33:02;;;;;;;25.67;3.90;;;;;;;8.78;100.00;100883.56;5012770;28;20073;-33
2022/01/03 01:35:37;;;;;;;25.13;4.75;;;;;;;8.78;100.00;100893.84;5014015;28;20057;-38
2022/01/03 01:38:08;;;;;;;29.23;3.53;;;;;;;8.77;100.00;100893.03;5031309;28;20136;-32
2022/01/03 01:40:46;;;;;;;27.50;4.55;;;;;;;8.77;100.00;100898.59;5030693;28;20042;-40
2022/01/03 01:43:20;;;;;;;29.48;4.40;;;;;;;8.75;100.00;100891.66;5013553;28;20525;-37
2022/01/03 01:45:52;;;;;;;26.08;3.55;;;;;;;8.75;100.00;100898.03;5012688;28;20057;-33
2022/01/03 01:48:24;;;;;;;30.40;4.60;;;;;;;8.78;100.00;100889.13;5013418;28;20060;-38
2022/01/03 01:50:55;;;;;;;28.98;4.32;;;;;;;8.76;100.00;100890.53;5031249;28;20077;-37
2022/01/03 01:53:26;;;;;;;32.70;4.03;;;;;;;8.75;100.00;100895.25;5012648;28;20046;-31
2022/01/03 01:55:59;;;;;;;34.78;3.97;;;;;;;8.73;100.00;100903.06;5013927;28;20050;-39
2022/01/03 01:58:38;;;;;;;29.92;4.43;;;;;;;8.74;100.00;100901.94;5035426;28;20064;-33
2022/01/03 02:01:08;;;;;;;28.27;4.10;;;;;;;8.74;100.00;100893.59;5016841;28;20045;-34
2022/01/03 02:03:48;;;;;;;31.33;3.80;;;;;;;8.72;100.00;100904.19;5017725;28;20063;-35
2022/01/03 02:06:28;;;;;;;25.80;4.68;;;;;;;8.78;100.00;100905.00;5017252;28;20557;-36
2022/01/03 02:09:05;;;;;;;31.03;4.37;;;;;;;8.77;100.00;100908.88;5016559;28;20081;-33
2022/01/03 02:11:43;;;;;;;30.08;4.57;;;;;;;8.79;100.00;100906.66;5034872;28;20064;-37
2022/01/03 02:14:13;;;;;;;25.50;3.90;;;;;;;8.80;100.00;100902.72;5016196;28;20176;-38
2022/01/03 02:16:45;;;;;;;31.63;4.60;;;;;;;8.78;100.00;100900.25;5017117;28;20405;-41
2022/01/03 02:19:13;;;;;;;31.23;4.22;;;;;;;8.78;100.00;100905.00;5034697;28;20053;-39
2022/01/03 02:21:43;;;;;;;32.95;4.50;;;;;;;8.77;100.00;100904.16;5016119;28;20053;-35
2022/01/03 02:24:15;;;;;;;34.45;4.78;;;;;;;8.78;100.00;100900.25;5017033;28;20045;-38
2022/01/03 02:26:43;;;;;;;35.70;4.80;;;;;;;8.77;100.00;100909.72;5016891;28;20049;-36
2022/01/03 02:29:11;;;;;;;31.02;4.45;;;;;;;8.78;100.00;100905.00;5033886;28;20054;-35
2022/01/03 02:31:39;;;;;;;30.48;4.57;;;;;;;8.81;100.00;100909.97;5034455;28;20045;-37
2022/01/03 02:34:08;;;;;;;38.95;5.32;;;;;;;8.77;100.00;100903.31;5016900;28;20077;-35
2022/01/03 02:36:36;;;;;;;27.52;4.63;;;;;;;8.79;100.00;100906.66;5016024;28;20453;-39
2022/01/03 02:39:06;;;;;;;28.35;4.28;;;;;;;8.80;100.00;100909.13;5016732;28;20046;-35
2022/01/03 02:41:35;;;;;;;28.17;4.30;;;;;;;8.79;100.00;100906.66;5016698;28;20084;-36
2022/01/03 02:44:03;;;;;;;33.35;4.75;;;;;;;8.79;100.00;100917.78;5015559;28;20049;-39
2022/01/03 02:46:31;;;;;;;29.98;5.53;;;;;;;8.80;100.00;100913.84;5034411;28;20441;-40
2022/01/03 02:48:59;;;;;;;28.17;4.60;;;;;;;8.78;100.00;100911.38;5016261;28;20046;-32
2022/01/03 02:51:27;;;;;;;34.65;4.90;;;;;;;8.77;100.00;100908.88;5016576;28;20419;-35
2022/01/03 02:53:54;;;;;;;31.90;4.90;;;;;;;8.77;100.00;100911.66;5034296;28;20467;-35
2022/01/03 02:56:24;;;;;;;37.83;5.35;;;;;;;8.76;100.00;100899.72;5015073;28;20437;-39
2022/01/03 02:58:52;;;;;;;21.08;3.58;;;;;;;8.78;100.00;100905.81;5016167;28;20060;-36
2022/01/03 03:01:20;;;;;;;30.63;4.68;;;;;;;8.76;100.00;100918.34;5034083;28;20457;-40
2022/01/03 03:03:50;;;;;;;29.52;4.80;;;;;;;8.75;100.00;100905.56;5033378;28;20046;-38
2022/01/03 03:06:18;;;;;;;28.92;4.47;;;;;;;8.76;100.00;100905.28;5016097;28;20049;-31
2022/01/03 03:08:46;;;;;;;38.30;4.80;;;;;;;8.74;100.00;100903.88;5015737;28;20049;-37
2022/01/03 03:11:14;;;;;;;33.05;4.72;;;;;;;8.74;100.00;100909.47;5015125;28;20140;-37
2022/01/03 03:13:43;;;;;;;29.90;4.68;;;;;;;8.76;100.00;100908.06;5016123;28;20049;-34
2022/01/03 03:16:11;;;;;;;28.20;4.28;;;;;;;8.75;100.00;100897.22;5015987;28;20461;-37
2022/01/03 03:18:44;;;;;;;28.23;4.40;;;;;;;8.73;100.00;100910.56;5015053;28;20081;-39
2022/01/03 03:21:12;;;;;;;38.08;5.20;;;;;;;8.73;100.00;100907.78;5015979;28;20449;-34
2022/01/03 03:23:40;;;;;;;27.27;4.00;;;;;;;8.75;100.00;100905.56;5033949;28;20073;-39
2022/01/03 03:26:09;;;;;;;34.13;4.82;;;;;;;8.72;100.00;100901.41;5015160;28;20099;-36
2022/01/03 03:28:37;;;;;;;35.83;4.72;;;;;;;8.74;100.00;100907.50;5015864;28;20414;-31
2022/01/03 03:31:07;;;;;;;34.80;4.70;;;;;;;8.74;100.00;100912.25;5015657;28;20060;-34
2022/01/03 03:33:39;;;;;;;34.78;4.95;;;;;;;8.75;100.00;100911.13;5015484;28;20046;-38
2022/01/03 03:36:07;;;;;;;36.70;5.05;;;;;;;8.74;100.00;100913.06;5033279;28;20053;-37
2022/01/03 03:38:36;;;;;;;25.42;4.18;;;;;;;8.74;100.00;100907.50;5014898;28;20060;-36
2022/01/03 03:41:12;;;;;;;26.40;4.30;;;;;;;8.76;100.00;100907.22;5033540;28;20058;-31
2022/01/03 03:43:45;;;;;;;33.38;5.22;;;;;;;8.74;100.00;100904.72;5014995;28;20057;-30
2022/01/03 03:46:15;;;;;;;27.60;4.72;;;;;;;8.76;100.00;100912.78;5014717;28;20053;-39
2022/01/03 03:48:43;;;;;;;40.17;6.03;;;;;;;8.76;100.00;100898.88;5015297;28;20053;-33
2022/01/03 03:51:15;;;;;;;36.25;5.13;;;;;;;8.72;100.00;100911.69;5015116;28;20499;-33
2022/01/03 03:53:44;;;;;;;32.65;4.75;;;;;;;8.73;100.00;100893.88;5014496;28;20056;-36
2022/01/03 03:56:13;;;;;;;28.05;4.68;;;;;;;8.74;100.00;100901.09;5014881;28;20084;-36
2022/01/03 03:58:40;;;;;;;28.50;5.00;;;;;;;8.74;100.00;100892.75;5015266;28;20049;-38
2022/01/03 04:01:09;;;;;;;33.13;5.32;;;;;;;8.74;100.00;100901.09;5014134;28;20064;-35
2022/01/03 04:03:45;;;;;;;33.80;5.50;;;;;;;8.74;100.00;100906.69;5015304;28;20140;-38
2022/01/03 04:06:15;;;;;;;35.85;5.25;;;;;;;8.74;100.00;100898.31;5015045;28;20048;-37
2022/01/03 04:08:45;;;;;;;40.05;5.65;;;;;;;8.74;100.00;100895.53;5032054;28;20081;-38
2022/01/03 04:11:14;;;;;;;28.50;4.50;;;;;;;8.75;100.00;100889.69;5014966;28;20388;-37
2022/01/03 04:13:42;;;;;;;33.03;4.97;;;;;;;8.76;100.00;100883.00;5013797;28;20079;-36
2022/01/03 04:16:11;;;;;;;40.95;5.53;;;;;;;8.77;100.00;100892.19;5032750;28;20084;-35
2022/01/03 04:18:38;;;;;;;36.55;6.18;;;;;;;8.79;100.00;100884.41;5014086;28;20053;-35
2022/01/03 04:21:09;;;;;;;31.25;5.38;;;;;;;8.81;100.00;100882.97;5014124;28;20139;-34
2022/01/03 04:23:36;;;;;;;31.80;4.95;;;;;;;8.78;100.00;100875.22;5014876;28;20387;-39
2022/01/03 04:26:05;;;;;;;38.83;4.63;;;;;;;8.82;100.00;100889.34;5014392;28;20437;-34
2022/01/03 04:28:32;;;;;;;35.78;5.57;;;;;;;8.80;100.00;100880.47;5031582;28;20512;-37
2022/01/03 04:31:00;;;;;;;34.15;4.95;;;;;;;8.82;100.00;100890.19;5014355;28;20045;-34
2022/01/03 04:33:32;;;;;;;35.20;4.68;;;;;;;8.81;100.00;100888.53;5014717;28;20049;-30
2022/01/03 04:36:01;;;;;;;31.35;5.57;;;;;;;8.84;100.00;100884.34;5013520;28;20080;-37
2022/01/03 04:38:30;;;;;;;36.00;5.05;;;;;;;8.84;100.00;100870.44;5014323;28;20422;-35
2022/01/03 04:40:58;;;;;;;37.20;5.20;;;;;;;8.86;100.00;100890.47;5014465;28;20049;-35
2022/01/03 04:43:27;;;;;;;38.60;6.05;;;;;;;8.84;100.00;100887.97;5031492;28;20099;-33
2022/01/03 04:45:56;;;;;;;35.25;4.80;;;;;;;8.85;100.00;100866.53;5032150;28;20049;-38
2022/01/03 04:48:24;;;;;;;27.85;4.65;;;;;;;8.84;100.00;100876.00;5014267;28;20045;-34
2022/01/03 04:50:52;;;;;;;32.28;5.72;;;;;;;8.87;100.00;100875.44;5030963;28;20085;-35
2022/01/03 04:53:25;;;;;;;37.15;5.38;;;;;;;8.86;100.00;100862.63;5014197;28;20571;-36
2022/01/03 04:55:55;;;;;;;29.27;4.35;;;;;;;8.86;100.00;100857.91;5013178;28;20491;-32
2022/01/03 04:58:23;;;;;;;38.50;5.57;;;;;;;8.86;100.00;100860.69;5014251;28;20045;-33
2022/01/03 05:00:50;;;;;;;40.70;5.53;;;;;;;8.85;100.00;100872.09;5014045;28;20057;-34
2022/01/03 05:03:19;;;;;;;35.38;5.18;;;;;;;8.85;100.00;100863.75;5013120;28;20049;-41
2022/01/03 05:05:47;;;;;;;37.97;4.85;;;;;;;8.86;100.00;100876.53;5011862;28;20104;-39
2022/01/03 05:08:15;;;;;;;33.35;4.68;;;;;;;8.86;100.00;100871.81;5029691;28;20107;-37
2022/01/03 05:10:43;;;;;;;37.58;5.75;;;;;;;8.86;100.00;100869.03;5030157;28;20137;-37
2022/01/03 05:13:13;;;;;;;37.22;4.97;;;;;;;8.86;100.00;100873.75;5013185;28;20537;-37
2022/01/03 05:15:41;;;;;;;34.08;4.65;;;;;;;8.84;100.00;100864.88;5012673;28;20496;-34
2022/01/03 05:18:09;;;;;;;37.72;5.60;;;;;;;8.84;100.00;100864.88;5029928;28;20092;-38
2022/01/03 05:20:37;;;;;;;43.45;5.35;;;;;;;8.85;100.00;100864.59;5013721;28;20462;-35
2022/01/03 05:23:06;;;;;;;34.42;5.45;;;;;;;8.86;100.00;100863.47;5013805;28;20184;-37
2022/01/03 05:25:33;;;;;;;37.97;4.85;;;;;;;8.85;100.00;100866.53;5029520;28;20162;-32
2022/01/03 05:28:01;;;;;;;29.13;4.15;;;;;;;8.84;100.00;100859.31;5030167;28;20132;-29
2022/01/03 05:30:31;;;;;;;41.15;6.03;;;;;;;8.83;100.00;100854.84;5031332;28;20384;-33
2022/01/03 05:32:59;;;;;;;40.92;5.10;;;;;;;8.82;100.00;100864.31;5012541;28;20388;-34
2022/01/03 05:35:29;;;;;;;44.60;5.97;;;;;;;8.85;100.00;100847.06;5013398;28;20063;-35
2022/01/03 05:37:58;;;;;;;40.30;5.22;;;;;;;8.82;100.00;100856.81;5012682;28;20045;-34
2022/01/03 05:40:26;;;;;;;35.05;4.93;;;;;;;8.83;100.00;100844.56;5013904;28;20410;-38
2022/01/03 05:42:54;;;;;;;36.22;5.65;;;;;;;8.82;100.00;100848.47;5013321;28;20419;-33
2022/01/03 05:45:27;;;;;;;44.60;5.07;;;;;;;8.82;100.00;100844.84;5012714;28;20491;-39
2022/01/03 05:47:56;;;;;;;36.40;5.30;;;;;;;8.81;100.00;100854.31;5031085;28;20049;-31
2022/01/03 05:50:24;;;;;;;37.25;4.95;;;;;;;8.82;100.00;100828.97;5031341;28;20403;-37
2022/01/03 05:52:53;;;;;;;43.00;5.05;;;;;;;8.83;100.00;100818.69;5012888;28;20053;-37
2022/01/03 05:55:21;;;;;;;40.80;5.65;;;;;;;8.83;100.00;100819.50;5013227;28;20052;-36
2022/01/03 05:57:49;;;;;;;35.13;5.38;;;;;;;8.79;100.00;100825.97;5012970;28;20495;-38
2022/01/03 06:00:24;;;;;;;40.08;5.55;;;;;;;8.78;100.00;100813.19;5012691;28;20053;-38
2022/01/03 06:02:56;;;;;;;38.13;5.50;;;;;;;8.80;100.00;100816.47;5031214;28;20053;-40
2022/01/03 06:05:42;;;;;;;42.28;5.60;;;;;;;8.80;100.00;100816.47;5031003;28;20565;-36
2022/01/03 06:08:13;;;;;;;35.65;5.15;;;;;;;8.80;100.00;100822.88;5012482;28;20107;-39
2022/01/03 06:10:44;;;;;;;38.05;5.75;;;;;;;8.77;100.00;100819.84;5013365;28;20053;-33
2022/01/03 06:13:19;;;;;;;30.63;4.95;;;;;;;8.76;100.00;100829.31;5029062;28;20176;-39
2022/01/03 06:15:47;;;;;;;32.40;5.85;;;;;;;8.76;100.00;100823.75;5030690;28;20504;-38
2022/01/03 06:18:17;;;;;;;33.65;4.88;;;;;;;8.76;100.00;100810.69;5013171;28;20423;-42
2022/01/03 06:20:51;;;;;;;37.70;5.30;;;;;;;8.75;100.00;100827.66;5012391;28;20502;-39
2022/01/03 06:23:23;;;;;;;45.20;6.03;;;;;;;8.75;100.00;100827.66;5013219;28;20112;-34
2022/01/03 06:25:51;;;;;;;36.80;5.45;;;;;;;8.75;100.00;100824.88;5013193;28;20046;-39
2022/01/03 06:28:34;;;;;;;35.35;5.68;;;;;;;8.76;100.00;100820.97;5030273;28;20394;-33
2022/01/03 06:31:03;;;;;;;33.10;5.65;;;;;;;8.75;100.00;100827.66;5012323;28;20059;-34
2022/01/03 06:33:31;;;;;;;33.63;4.85;;;;;;;8.75;100.00;100809.00;5011486;28;20042;-34
2022/01/03 06:36:00;;;;;;;43.38;5.63;;;;;;;8.77;100.00;100805.94;5028239;28;20120;-36
2022/01/03 06:38:28;;;;;;;34.88;4.68;;;;;;;8.77;100.00;100819.84;5029209;28;20072;-30
2022/01/03 06:40:56;;;;;;;36.72;4.95;;;;;;;8.77;100.00;100814.28;5011997;28;20459;-38
2022/01/03 06:43:23;;;;;;;42.30;4.90;;;;;;;8.77;100.00;100817.91;5014077;28;20049;-33
2022/01/03 06:45:51;;;;;;;41.50;5.63;;;;;;;8.76;100.00;100823.75;5014875;28;20053;-39
2022/01/03 06:48:19;;;;;;;37.88;5.72;;;;;;;8.75;100.00;100816.53;5032991;28;20049;-34
2022/01/03 06:50:47;;;;;;;32.17;4.90;;;;;;;8.76;100.00;100820.97;5034210;28;20060;-32
2022/01/03 06:53:16;;;;;;;29.75;4.53;;;;;;;8.77;100.00;100819.84;5016544;28;20058;-30
2022/01/03 06:55:44;;;;;;;36.63;4.35;;;;;;;8.75;100.00;100822.09;5015064;28;20049;-35
2022/01/03 06:58:12;;;;;;;35.00;4.68;;;;;;;8.78;100.00;100815.97;5015840;28;20126;-37
2022/01/03 07:00:40;;;;;;;39.47;5.35;;;;;;;8.77;100.00;100825.44;5015448;28;20148;-34
2022/01/03 07:03:07;;;;;;;37.45;5.13;;;;;;;8.78;100.00;100827.09;5013032;28;20403;-39
2022/01/03 07:05:35;;;;;;;38.25;5.57;;;;;;;8.76;100.00;100830.16;5032189;28;20041;-34
2022/01/03 07:08:08;;;;;;;34.20;4.93;;;;;;;8.81;100.00;100823.69;5032510;28;20049;-33
2022/01/03 07:10:37;;;;;;;35.35;4.65;;;;;;;8.81;100.00;100820.91;5031993;28;20071;-35
2022/01/03 07:13:05;;;;;;;38.28;5.82;;;;;;;8.80;100.00;100831.22;5032736;28;20053;-36
2022/01/03 07:21:04;;;;;;;37.42;4.95;;;;;;;8.74;100.00;100809.31;5030167;28;20063;-37
2022/01/03 07:23:31;;;;;;;35.13;5.03;;;;;;;8.75;100.00;100813.75;5031947;28;20060;-35
2022/01/03 07:26:01;;;;;;;32.58;4.93;;;;;;;8.73;100.00;100805.69;5032260;28;20073;-34
2022/01/03 07:28:29;;;;;;;29.73;4.97;;;;;;;8.74;100.00;100803.75;5032692;28;20057;-30
2022/01/03 07:30:57;;;;;;;37.92;5.68;;;;;;;8.74;100.00;100801.78;5031597;28;20080;-35
2022/01/03 07:33:25;;;;;;;31.98;5.28;;;;;;;8.74;100.00;100812.09;5032373;28;20073;-38
2022/01/03 07:35:53;;;;;;;29.17;3.95;;;;;;;8.78;100.00;100804.84;5031326;28;20073;-32
2022/01/03 07:38:21;;;;;;;29.35;4.47;;;;;;;8.75;100.00;100805.41;5030224;28;20060;-37
2022/01/03 07:40:48;;;;;;;41.45;5.72;;;;;;;8.78;100.00;100799.25;5031320;28;20087;-30
2022/01/03 07:43:18;;;;;;;36.03;4.93;;;;;;;8.77;100.00;100804.00;5031287;28;20053;-40
2022/01/03 07:45:46;;;;;;;35.42;4.68;;;;;;;8.76;100.00;100805.13;5030393;28;20503;-33
2022/01/03 07:48:14;;;;;;;37.63;4.82;;;;;;;8.77;100.00;100804.00;5030910;28;20053;-36
2022/01/03 07:50:42;;;;;;;30.50;4.45;;;;;;;8.78;100.00;100800.09;5029975;28;20068;-34
2022/01/03 07:53:09;;;;;;;33.03;4.63;;;;;;;8.79;100.00;100806.50;5026190;28;20107;-41
2022/01/03 07:55:37;;;;;;;31.88;4.55;;;;;;;8.79;100.00;100812.06;5028409;28;20053;-34
2022/01/03 07:58:05;;;;;;;31.65;5.30;;;;;;;8.78;100.00;100818.75;5030937;28;20057;-33
2022/01/03 08:00:34;;;;;;;32.92;5.18;;;;;;;8.77;100.00;100817.91;5030598;28;20053;-36
2022/01/03 08:03:01;;;;;;;35.88;5.13;;;;;;;8.75;100.00;100822.09;5031845;28;20107;-34
2022/01/03 08:05:30;;;;;;;48.58;5.95;;;;;;;8.73;100.00;100832.69;5031476;28;20057;-35
2022/01/03 08:07:57;;;;;;;39.47;5.35;;;;;;;8.75;100.00;100831.28;5030964;28;20045;-33
2022/01/03 08:10:25;;;;;;;30.23;5.25;;;;;;;8.74;100.00;100826.00;5031490;28;20061;-37
2022/01/03 08:12:53;;;;;;;35.17;4.82;;;;;;;8.74;100.00;100826.81;5030580;28;20349;-39
2022/01/03 08:15:23;;;;;;;26.13;4.43;;;;;;;8.75;100.00;100834.06;5031204;28;20409;-38
2022/01/03 08:17:52;;;;;;;26.65;5.07;;;;;;;8.77;100.00;100834.59;5031424;28;20049;-36
2022/01/03 08:20:20;;;;;;;33.75;5.60;;;;;;;8.79;100.00;100834.31;5028656;28;20463;-36
2022/01/03 08:22:48;;;;;;;31.05;4.93;;;;;;;8.80;100.00;100830.38;5031526;28;20407;-34
2022/01/03 08:25:16;;;;;;;36.10;5.00;;;;;;;8.84;100.00;100818.41;5030085;28;20053;-36
2022/01/03 08:27:43;;;;;;;39.35;5.18;;;;;;;8.84;100.00;100817.56;5029594;28;20049;-34
2022/01/03 08:30:11;;;;;;;28.38;5.47;;;;;;;8.85;100.00;100830.34;5031090;28;20045;-34
2022/01/03 08:32:39;;;;;;;34.97;4.90;;;;;;;8.85;100.00;100833.13;5031120;28;20501;-35
2022/01/03 08:35:10;;;;;;;28.98;4.43;;;;;;;8.86;100.00;100820.91;5029797;28;20045;-39
2022/01/03 08:37:38;;;;;;;30.90;4.13;;;;;;;8.87;100.00;100825.34;5029306;28;20049;-36
2022/01/03 08:40:07;;;;;;;31.42;4.72;;;;;;;8.88;100.00;100827.84;5030497;28;20049;-36
2022/01/03 08:42:35;;;;;;;33.03;4.90;;;;;;;8.90;100.00;100852.59;5031164;28;20041;-36
2022/01/03 08:45:05;;;;;;;33.70;4.50;;;;;;;8.89;100.00;100832.28;5031847;28;20103;-39
2022/01/03 08:47:33;;;;;;;35.35;4.75;;;;;;;8.94;100.00;100826.69;5032157;28;20045;-34
2022/01/03 08:50:01;;;;;;;29.80;4.38;;;;;;;8.96;100.00;100821.66;5030646;28;20546;-36
2022/01/03 08:52:31;;;;;;;36.50;5.45;;;;;;;8.96;100.00;100824.44;5031628;28;20053;-40
2022/01/03 08:54:59;;;;;;;32.85;4.22;;;;;;;8.97;100.00;100828.06;5031202;28;20064;-31
2022/01/03 08:57:27;;;;;;;37.42;5.05;;;;;;;9.01;100.00;100826.34;5030724;28;20054;-39
2022/01/03 08:59:55;;;;;;;28.08;4.78;;;;;;;9.01;100.00;100820.78;5030742;28;20502;-41
2022/01/03 09:02:22;;;;;;;30.52;4.75;;;;;;;9.08;100.00;100826.03;5012189;28;20427;-37
2022/01/03 09:04:50;;;;;;;33.28;4.55;;;;;;;9.14;100.00;100816.53;5029604;28;20041;-29
2022/01/03 09:07:18;;;;;;;32.08;4.47;;;;;;;9.22;100.00;100819.50;5031538;28;20407;-35
2022/01/03 09:09:47;;;;;;;36.08;4.53;;;;;;;9.31;100.00;100825.28;5030906;28;20045;-36
2022/01/03 09:12:15;;;;;;;34.33;5.07;;;;;;;9.40;100.00;100811.53;5031697;28;20061;-32
2022/01/03 09:14:44;;;;;;;33.85;4.47;;;;;;;9.42;100.00;100814.88;5031704;28;20049;-37
2022/01/03 09:17:11;;;;;;;30.50;4.82;;;;;;;9.48;100.00;100825.69;5030670;28;20053;-33
2022/01/03 09:19:39;;;;;;;33.47;5.40;;;;;;;9.55;100.00;100815.03;5031271;28;20045;-34
2022/01/03 09:22:13;;;;;;;29.13;4.13;;;;;;;9.62;100.00;100826.66;5031564;28;20062;-33
2022/01/03 09:24:48;;;;;;;38.67;5.05;;;;;;;9.65;100.00;100816.88;5030754;28;20053;-34
2022/01/03 09:30:04;;;;;;;34.55;5.25;;;;;;;9.78;100.00;100824.56;5030576;28;20041;-37
2022/01/03 09:32:32;;;;;;;34.95;4.90;;;;;;;9.83;100.00;100821.69;5031038;28;20399;-32
2022/01/03 09:35:00;;;;;;;27.85;4.90;;;;;;;9.86;100.00;100826.69;5030439;28;20132;-37
2022/01/03 09:37:28;;;;;;;32.22;5.15;;;;;;;9.86;100.00;100837.00;5028608;28;20077;-34
2022/01/03 09:39:55;;;;;;;32.17;5.00;;;;;;;9.81;100.00;100828.69;5030487;28;20057;-35
2022/01/03 09:42:29;;;;;;;33.15;5.38;;;;;;;9.83;100.00;100823.66;5030934;28;20057;-36
2022/01/03 09:44:59;;;;;;;38.15;6.07;;;;;;;9.84;100.00;100834.50;5030007;28;20046;-37
2022/01/03 09:47:31;;;;;;;33.50;4.95;;;;;;;9.91;100.00;100828.59;5030678;28;20049;-31
2022/01/03 09:50:00;;;;;;;31.52;5.75;;;;;;;9.90;100.00;100830.53;5031526;28;20049;-37
2022/01/03 09:52:30;;;;;;;33.20;5.05;;;;;;;9.91;100.00;100818.28;5030419;28;20050;-36
2022/01/03 09:54:58;;;;;;;36.42;5.43;;;;;;;9.87;100.00;100836.72;5030975;28;20072;-36
2022/01/03 09:57:30;;;;;;;35.80;4.85;;;;;;;9.86;100.00;100829.47;5030927;28;20054;-34
2022/01/03 09:59:59;;;;;;;32.72;5.72;;;;;;;9.92;100.00;100822.72;5029836;28;20064;-41
2022/01/03 10:02:28;;;;;;;35.90;5.00;;;;;;;9.96;100.00;100826.59;5030892;28;20053;-32
2022/01/03 10:04:56;;;;;;;37.10;4.95;;;;;;;9.99;100.00;100819.59;5031074;28;20136;-34
2022/01/03 10:07:25;;;;;;;33.72;5.80;;;;;;;10.04;100.00;100816.72;5030287;28;20045;-37
2022/01/03 10:09:55;;;;;;;34.22;4.47;;;;;;;10.06;100.00;100824.78;5031322;28;20066;-36
2022/01/03 10:12:22;;;;;;;26.83;4.55;;;;;;;9.98;100.00;100815.16;5029510;28;20066;-37
2022/01/03 10:14:51;;;;;;;26.75;4.95;;;;;;;10.02;100.00;100810.59;5029629;28;20057;-34
2022/01/03 10:17:19;;;;;;;36.08;5.40;;;;;;;10.06;100.00;100810.84;5030226;28;20487;-39
2022/01/03 10:19:54;;;;;;;29.77;4.85;;;;;;;10.13;100.00;100817.75;5031857;28;20521;-36
2022/01/03 10:22:24;;;;;;;34.85;5.18;;;;;;;10.16;100.00;100819.09;5032867;28;20513;-38
2022/01/03 10:24:52;;;;;;;36.40;5.47;;;;;;;10.23;100.00;100812.06;5032340;28;20064;-39
2022/01/03 10:27:20;;;;;;;41.90;5.93;;;;;;;10.25;100.00;100812.59;5032910;28;20049;-34
2022/01/03 10:29:57;;;;;;;32.03;4.70;;;;;;;10.29;100.00;100810.03;5014242;28;20402;-35
2022/01/03 10:32:29;;;;;;;33.42;5.15;;;;;;;10.28;100.00;100800.00;5032715;28;20115;-39
2022/01/03 10:34:58;;;;;;;28.88;4.32;;;;;;;10.40;100.00;100810.72;5031652;28;20498;-40
2022/01/03 10:37:37;;;;;;;25.38;4.13;;;;;;;10.47;100.00;100792.50;5033920;28;20622;-35
2022/01/03 10:40:19;;;;;;;34.60;5.40;;;;;;;10.55;100.00;100804.97;5032344;28;20521;-38
2022/01/03 10:42:47;;;;;;;32.55;4.68;;;;;;;10.43;100.00;100797.00;5034135;28;20507;-34
2022/01/03 10:45:30;;;;;;;28.67;4.25;;;;;;;10.40;100.00;100803.19;5034272;28;20057;-39
2022/01/03 10:47:59;;;;;;;30.95;4.80;;;;;;;10.39;100.00;100806.31;5033544;28;20049;-41
2022/01/03 10:50:27;;;;;;;25.90;4.95;;;;;;;10.38;100.00;100799.06;5034219;28;20136;-43
2022/01/03 10:52:56;;;;;;;30.33;4.88;;;;;;;10.39;100.00;100790.41;5034595;28;20048;-38
2022/01/03 10:55:29;;;;;;;29.70;4.97;;;;;;;10.39;100.00;100790.41;5033273;28;20163;-39
2022/01/03 10:58:00;;;;;;;33.72;4.40;;;;;;;10.39;100.00;100793.19;5033823;28;20550;-33
2022/01/03 11:00:31;;;;;;;33.22;5.20;;;;;;;10.45;100.00;100799.50;5034170;28;20145;-40
2022/01/03 11:03:26;;;;;;;34.85;5.65;;;;;;;10.50;100.00;100794.69;5033272;28;20081;-39
2022/01/03 11:05:58;;;;;;;26.38;4.53;;;;;;;10.57;100.00;100797.13;5031963;28;20045;-41
2022/01/03 11:11:14;;;;;;;40.70;5.32;;;;;;;10.69;100.00;100789.13;5033249;28;20449;-39
2022/01/03 11:13:44;;;;;;;36.17;6.00;;;;;;;10.59;100.00;100792.06;5033855;28;20049;-37
2022/01/03 11:16:13;;;;;;;35.88;5.63;;;;;;;10.47;100.00;100786.91;5032608;28;20049;-42
2022/01/03 11:18:46;;;;;;;30.58;5.22;;;;;;;10.33;100.00;100781.25;5033078;28;20087;-37
2022/01/03 11:21:16;;;;;;;35.40;5.45;;;;;;;10.33;100.00;100780.44;5033335;28;20077;-38
2022/01/03 11:23:47;;;;;;;41.03;6.13;;;;;;;10.30;100.00;100789.38;5032845;28;20517;-39
2022/01/03 11:26:17;;;;;;;31.88;4.93;;;;;;;10.28;100.00;100794.44;5033679;28;20073;-38
2022/01/03 11:28:45;;;;;;;37.70;5.88;;;;;;;10.33;100.00;100792.41;5033358;28;20037;-37
2022/01/03 11:31:17;;;;;;;32.15;5.35;;;;;;;10.32;100.00;100779.59;5032520;28;20053;-35
2022/01/03 11:33:47;;;;;;;38.03;5.75;;;;;;;10.29;100.00;100774.63;5033292;28;20041;-36
2022/01/03 11:36:36;;;;;;;33.90;5.22;;;;;;;10.25;100.00;100761.56;5032529;28;20053;-39
2022/01/03 11:39:08;;;;;;;30.27;5.28;;;;;;;10.21;100.00;100749.34;5033081;28;20517;-38